sensor_id;sensor_type;location;lat;lon;timestamp;temperature;humidity
10903;DHT22;5504;47.312;11.060;2023-07-20T00:01:57;20.70;98.80
10903;DHT22;5504;47.312;11.060;2023-07-20T00:04:23;20.60;98.90
10903;DHT22;5504;47.312;11.060;2023-07-20T00:06:49;20.50;98.70
10903;DHT22;5504;47.312;11.060;2023-07-20T00:09:14;20.50;99.00
10903;DHT22;5504;47.312;11.060;2023-07-20T00:11:47;20.50;99.50
10903;DHT22;5504;47.312;11.060;2023-07-20T00:14:13;20.50;99.80
10903;DHT22;5504;47.312;11.060;2023-07-20T00:16:39;20.50;99.90
10903;DHT22;5504;47.312;11.060;2023-07-20T00:19:04;20.50;99.90
10903;DHT22;5504;47.312;11.060;2023-07-20T00:21:32;20.50;99.80
10903;DHT22;5504;47.312;11.060;2023-07-20T00:23:58;20.50;99.70
10903;DHT22;5504;47.312;11.060;2023-07-20T00:26:23;20.50;99.60
10903;DHT22;5504;47.312;11.060;2023-07-20T00:28:50;20.60;99.70
10903;DHT22;5504;47.312;11.060;2023-07-20T00:31:17;20.60;99.90
10903;DHT22;5504;47.312;11.060;2023-07-20T00:33:42;20.50;99.60
10903;DHT22;5504;47.312;11.060;2023-07-20T00:36:08;20.40;99.80
10903;DHT22;5504;47.312;11.060;2023-07-20T00:38:34;20.40;99.90
10903;DHT22;5504;47.312;11.060;2023-07-20T00:41:00;20.40;99.90
10903;DHT22;5504;47.312;11.060;2023-07-20T00:43:25;20.50;99.90
10903;DHT22;5504;47.312;11.060;2023-07-20T00:45:51;20.50;99.90
10903;DHT22;5504;47.312;11.060;2023-07-20T00:48:17;20.40;99.90
10903;DHT22;5504;47.312;11.060;2023-07-20T00:50:43;20.40;99.90
10903;DHT22;5504;47.312;11.060;2023-07-20T00:53:09;20.50;99.90
10903;DHT22;5504;47.312;11.060;2023-07-20T00:55:35;20.60;99.60
10903;DHT22;5504;47.312;11.060;2023-07-20T00:58:01;20.50;99.10
10903;DHT22;5504;47.312;11.060;2023-07-20T01:00:27;20.50;99.10
10903;DHT22;5504;47.312;11.060;2023-07-20T01:02:53;20.50;99.10
10903;DHT22;5504;47.312;11.060;2023-07-20T01:05:19;20.60;98.80
10903;DHT22;5504;47.312;11.060;2023-07-20T01:07:59;20.50;98.80
10903;DHT22;5504;47.312;11.060;2023-07-20T01:12:56;20.40;99.30
10903;DHT22;5504;47.312;11.060;2023-07-20T01:15:22;20.40;99.30
10903;DHT22;5504;47.312;11.060;2023-07-20T01:17:48;20.50;99.10
10903;DHT22;5504;47.312;11.060;2023-07-20T01:20:16;20.50;98.90
10903;DHT22;5504;47.312;11.060;2023-07-20T01:22:47;20.50;98.90
10903;DHT22;5504;47.312;11.060;2023-07-20T01:33:57;20.30;99.80
10903;DHT22;5504;47.312;11.060;2023-07-20T01:36:24;20.30;99.90
10903;DHT22;5504;47.312;11.060;2023-07-20T01:38:52;20.20;99.90
10903;DHT22;5504;47.312;11.060;2023-07-20T01:41:18;20.20;99.90
10903;DHT22;5504;47.312;11.060;2023-07-20T01:43:44;20.20;99.90
10903;DHT22;5504;47.312;11.060;2023-07-20T01:46:10;20.20;99.90
10903;DHT22;5504;47.312;11.060;2023-07-20T01:48:36;20.10;99.90
10903;DHT22;5504;47.312;11.060;2023-07-20T01:51:01;20.20;99.90
10903;DHT22;5504;47.312;11.060;2023-07-20T01:53:27;20.30;99.90
10903;DHT22;5504;47.312;11.060;2023-07-20T01:55:53;20.30;99.90
10903;DHT22;5504;47.312;11.060;2023-07-20T01:58:20;20.30;99.90
10903;DHT22;5504;47.312;11.060;2023-07-20T02:00:45;20.30;99.90
10903;DHT22;5504;47.312;11.060;2023-07-20T02:03:11;20.40;99.80
10903;DHT22;5504;47.312;11.060;2023-07-20T02:05:37;20.40;99.80
10903;DHT22;5504;47.312;11.060;2023-07-20T02:08:03;20.40;99.90
10903;DHT22;5504;47.312;11.060;2023-07-20T02:10:29;20.30;99.80
10903;DHT22;5504;47.312;11.060;2023-07-20T02:12:55;20.40;99.90
10903;DHT22;5504;47.312;11.060;2023-07-20T02:15:21;20.40;99.90
10903;DHT22;5504;47.312;11.060;2023-07-20T02:17:47;20.30;99.70
10903;DHT22;5504;47.312;11.060;2023-07-20T02:20:13;20.10;99.90
10903;DHT22;5504;47.312;11.060;2023-07-20T02:22:39;20.20;99.90
10903;DHT22;5504;47.312;11.060;2023-07-20T02:25:06;20.20;99.90
10903;DHT22;5504;47.312;11.060;2023-07-20T02:27:35;20.30;99.90
10903;DHT22;5504;47.312;11.060;2023-07-20T02:30:02;20.20;99.90
10903;DHT22;5504;47.312;11.060;2023-07-20T02:32:29;20.20;99.70
10903;DHT22;5504;47.312;11.060;2023-07-20T02:34:55;20.20;99.50
10903;DHT22;5504;47.312;11.060;2023-07-20T02:37:20;20.20;99.80
10903;DHT22;5504;47.312;11.060;2023-07-20T02:39:46;20.10;99.70
10903;DHT22;5504;47.312;11.060;2023-07-20T02:42:12;20.10;99.40
10903;DHT22;5504;47.312;11.060;2023-07-20T02:44:38;20.00;99.20
10903;DHT22;5504;47.312;11.060;2023-07-20T02:47:04;20.00;99.30
10903;DHT22;5504;47.312;11.060;2023-07-20T02:49:30;19.90;99.70
10903;DHT22;5504;47.312;11.060;2023-07-20T02:51:56;19.90;99.40
10903;DHT22;5504;47.312;11.060;2023-07-20T02:54:21;19.80;99.50
10903;DHT22;5504;47.312;11.060;2023-07-20T02:56:47;19.80;99.60
10903;DHT22;5504;47.312;11.060;2023-07-20T02:59:13;19.90;99.80
10903;DHT22;5504;47.312;11.060;2023-07-20T03:01:38;19.90;99.60
10903;DHT22;5504;47.312;11.060;2023-07-20T03:04:04;19.90;99.50
10903;DHT22;5504;47.312;11.060;2023-07-20T03:06:30;19.90;99.30
10903;DHT22;5504;47.312;11.060;2023-07-20T03:08:56;19.90;99.30
10903;DHT22;5504;47.312;11.060;2023-07-20T03:11:22;19.90;99.60
10903;DHT22;5504;47.312;11.060;2023-07-20T03:13:48;19.90;99.50
10903;DHT22;5504;47.312;11.060;2023-07-20T03:16:18;19.80;99.40
10903;DHT22;5504;47.312;11.060;2023-07-20T03:18:44;19.80;99.70
10903;DHT22;5504;47.312;11.060;2023-07-20T03:21:11;19.80;99.90
10903;DHT22;5504;47.312;11.060;2023-07-20T03:23:38;19.90;99.50
10903;DHT22;5504;47.312;11.060;2023-07-20T03:26:04;19.90;99.40
10903;DHT22;5504;47.312;11.060;2023-07-20T03:28:29;19.90;99.30
10903;DHT22;5504;47.312;11.060;2023-07-20T03:30:56;20.00;99.60
10903;DHT22;5504;47.312;11.060;2023-07-20T03:33:25;20.00;99.50
10903;DHT22;5504;47.312;11.060;2023-07-20T03:35:50;20.00;99.50
10903;DHT22;5504;47.312;11.060;2023-07-20T03:38:16;20.00;99.80
10903;DHT22;5504;47.312;11.060;2023-07-20T03:40:58;20.00;99.90
10903;DHT22;5504;47.312;11.060;2023-07-20T03:43:25;20.00;99.70
10903;DHT22;5504;47.312;11.060;2023-07-20T03:45:51;20.00;99.90
10903;DHT22;5504;47.312;11.060;2023-07-20T03:48:21;20.00;99.80
10903;DHT22;5504;47.312;11.060;2023-07-20T03:50:50;20.00;99.90
10903;DHT22;5504;47.312;11.060;2023-07-20T03:53:16;19.90;99.80
10903;DHT22;5504;47.312;11.060;2023-07-20T03:55:47;20.00;99.70
10903;DHT22;5504;47.312;11.060;2023-07-20T03:58:13;19.90;99.80
10903;DHT22;5504;47.312;11.060;2023-07-20T04:00:39;19.90;99.60
10903;DHT22;5504;47.312;11.060;2023-07-20T04:03:06;19.90;99.40
10903;DHT22;5504;47.312;11.060;2023-07-20T04:05:31;20.00;99.50
10903;DHT22;5504;47.312;11.060;2023-07-20T04:07:58;19.90;99.50
10903;DHT22;5504;47.312;11.060;2023-07-20T04:10:24;19.90;99.50
10903;DHT22;5504;47.312;11.060;2023-07-20T04:12:49;19.90;99.50
10903;DHT22;5504;47.312;11.060;2023-07-20T04:15:15;19.90;99.40
10903;DHT22;5504;47.312;11.060;2023-07-20T04:17:41;19.90;99.40
10903;DHT22;5504;47.312;11.060;2023-07-20T04:20:08;19.90;99.20
10903;DHT22;5504;47.312;11.060;2023-07-20T04:22:34;19.90;99.50
10903;DHT22;5504;47.312;11.060;2023-07-20T04:24:59;19.90;99.30
10903;DHT22;5504;47.312;11.060;2023-07-20T04:27:25;19.90;99.40
10903;DHT22;5504;47.312;11.060;2023-07-20T04:29:52;19.80;99.40
10903;DHT22;5504;47.312;11.060;2023-07-20T04:32:17;19.80;99.70
10903;DHT22;5504;47.312;11.060;2023-07-20T04:34:43;19.90;99.90
10903;DHT22;5504;47.312;11.060;2023-07-20T04:37:09;19.90;99.80
10903;DHT22;5504;47.312;11.060;2023-07-20T04:39:34;20.00;99.80
10903;DHT22;5504;47.312;11.060;2023-07-20T04:42:00;20.00;99.90
10903;DHT22;5504;47.312;11.060;2023-07-20T04:44:26;19.90;99.80
10903;DHT22;5504;47.312;11.060;2023-07-20T04:46:51;20.00;99.70
10903;DHT22;5504;47.312;11.060;2023-07-20T04:49:17;20.00;99.80
10903;DHT22;5504;47.312;11.060;2023-07-20T04:51:43;20.00;99.90
10903;DHT22;5504;47.312;11.060;2023-07-20T04:54:08;20.00;99.90
10903;DHT22;5504;47.312;11.060;2023-07-20T04:56:34;20.00;99.90
10903;DHT22;5504;47.312;11.060;2023-07-20T04:59:00;20.10;99.90
10903;DHT22;5504;47.312;11.060;2023-07-20T05:01:26;20.20;99.90
10903;DHT22;5504;47.312;11.060;2023-07-20T05:03:54;20.40;99.70
10903;DHT22;5504;47.312;11.060;2023-07-20T05:06:20;20.40;99.20
10903;DHT22;5504;47.312;11.060;2023-07-20T05:08:45;20.40;98.90
10903;DHT22;5504;47.312;11.060;2023-07-20T05:11:11;20.40;99.20
10903;DHT22;5504;47.312;11.060;2023-07-20T05:13:37;20.30;99.20
10903;DHT22;5504;47.312;11.060;2023-07-20T05:16:03;20.30;99.30
10903;DHT22;5504;47.312;11.060;2023-07-20T05:18:29;20.30;99.40
10903;DHT22;5504;47.312;11.060;2023-07-20T05:20:55;20.30;99.50
10903;DHT22;5504;47.312;11.060;2023-07-20T05:23:21;20.20;99.70
10903;DHT22;5504;47.312;11.060;2023-07-20T05:25:53;20.20;99.80
10903;DHT22;5504;47.312;11.060;2023-07-20T05:28:19;20.20;99.70
10903;DHT22;5504;47.312;11.060;2023-07-20T05:30:44;20.20;99.70
10903;DHT22;5504;47.312;11.060;2023-07-20T05:33:10;20.20;99.70
10903;DHT22;5504;47.312;11.060;2023-07-20T05:35:36;20.10;99.80
10903;DHT22;5504;47.312;11.060;2023-07-20T05:38:02;20.20;99.90
10903;DHT22;5504;47.312;11.060;2023-07-20T05:40:31;20.10;99.80
10903;DHT22;5504;47.312;11.060;2023-07-20T05:42:56;20.20;99.80
10903;DHT22;5504;47.312;11.060;2023-07-20T05:45:22;20.20;99.90
10903;DHT22;5504;47.312;11.060;2023-07-20T05:47:48;20.30;99.70
10903;DHT22;5504;47.312;11.060;2023-07-20T05:50:14;20.30;99.40
10903;DHT22;5504;47.312;11.060;2023-07-20T05:52:40;20.50;99.30
10903;DHT22;5504;47.312;11.060;2023-07-20T05:55:06;20.60;98.90
10903;DHT22;5504;47.312;11.060;2023-07-20T05:57:33;20.50;98.80
10903;DHT22;5504;47.312;11.060;2023-07-20T05:59:58;20.60;98.60
10903;DHT22;5504;47.312;11.060;2023-07-20T06:02:24;20.50;98.40
10903;DHT22;5504;47.312;11.060;2023-07-20T06:04:50;20.40;98.60
10903;DHT22;5504;47.312;11.060;2023-07-20T06:07:16;20.40;98.80
10903;DHT22;5504;47.312;11.060;2023-07-20T06:09:41;20.50;98.90
10903;DHT22;5504;47.312;11.060;2023-07-20T06:12:08;20.90;99.90
10903;DHT22;5504;47.312;11.060;2023-07-20T06:14:34;21.00;98.80
10903;DHT22;5504;47.312;11.060;2023-07-20T06:17:00;21.20;98.50
10903;DHT22;5504;47.312;11.060;2023-07-20T06:19:26;21.30;98.30
10903;DHT22;5504;47.312;11.060;2023-07-20T06:21:52;21.40;97.40
10903;DHT22;5504;47.312;11.060;2023-07-20T06:24:17;21.40;96.70
10903;DHT22;5504;47.312;11.060;2023-07-20T06:26:43;21.60;96.00
10903;DHT22;5504;47.312;11.060;2023-07-20T06:29:09;21.70;96.50
10903;DHT22;5504;47.312;11.060;2023-07-20T06:31:36;21.70;96.70
10903;DHT22;5504;47.312;11.060;2023-07-20T06:34:02;21.60;96.00
10903;DHT22;5504;47.312;11.060;2023-07-20T06:36:28;21.60;96.40
10903;DHT22;5504;47.312;11.060;2023-07-20T06:38:56;21.50;96.00
10903;DHT22;5504;47.312;11.060;2023-07-20T06:41:21;21.50;96.30
10903;DHT22;5504;47.312;11.060;2023-07-20T06:43:47;21.40;96.00
10903;DHT22;5504;47.312;11.060;2023-07-20T06:46:13;21.40;96.50
10903;DHT22;5504;47.312;11.060;2023-07-20T06:48:39;21.50;97.30
10903;DHT22;5504;47.312;11.060;2023-07-20T06:51:05;21.50;96.50
10903;DHT22;5504;47.312;11.060;2023-07-20T06:53:31;21.60;96.80
10903;DHT22;5504;47.312;11.060;2023-07-20T06:55:56;21.80;96.60
10903;DHT22;5504;47.312;11.060;2023-07-20T06:58:23;21.70;95.70
10903;DHT22;5504;47.312;11.060;2023-07-20T07:00:49;21.80;96.00
10903;DHT22;5504;47.312;11.060;2023-07-20T07:03:15;22.10;95.00
10903;DHT22;5504;47.312;11.060;2023-07-20T07:05:41;22.40;95.90
10903;DHT22;5504;47.312;11.060;2023-07-20T07:08:07;22.40;93.80
10903;DHT22;5504;47.312;11.060;2023-07-20T07:10:34;22.40;93.90
10903;DHT22;5504;47.312;11.060;2023-07-20T07:13:01;22.80;94.90
10903;DHT22;5504;47.312;11.060;2023-07-20T07:15:27;21.90;93.70
10903;DHT22;5504;47.312;11.060;2023-07-20T07:17:53;22.40;94.60
10903;DHT22;5504;47.312;11.060;2023-07-20T07:20:19;22.70;93.10
10903;DHT22;5504;47.312;11.060;2023-07-20T07:22:45;22.80;92.00
10903;DHT22;5504;47.312;11.060;2023-07-20T07:25:10;22.60;92.90
10903;DHT22;5504;47.312;11.060;2023-07-20T07:27:36;22.90;93.30
10903;DHT22;5504;47.312;11.060;2023-07-20T07:30:03;22.60;92.60
10903;DHT22;5504;47.312;11.060;2023-07-20T07:32:29;22.10;93.40
10903;DHT22;5504;47.312;11.060;2023-07-20T07:34:54;22.40;94.80
10903;DHT22;5504;47.312;11.060;2023-07-20T07:37:21;23.50;96.30
10903;DHT22;5504;47.312;11.060;2023-07-20T07:39:46;24.30;94.20
10903;DHT22;5504;47.312;11.060;2023-07-20T07:42:12;24.70;92.10
10903;DHT22;5504;47.312;11.060;2023-07-20T07:44:38;25.10;90.90
10903;DHT22;5504;47.312;11.060;2023-07-20T07:47:04;25.30;90.30
10903;DHT22;5504;47.312;11.060;2023-07-20T07:49:30;24.90;86.00
10903;DHT22;5504;47.312;11.060;2023-07-20T07:51:56;25.40;88.10
10903;DHT22;5504;47.312;11.060;2023-07-20T07:54:22;25.80;87.70
10903;DHT22;5504;47.312;11.060;2023-07-20T07:56:48;25.10;83.10
10903;DHT22;5504;47.312;11.060;2023-07-20T07:59:14;24.70;84.90
10903;DHT22;5504;47.312;11.060;2023-07-20T08:01:39;24.70;90.30
10903;DHT22;5504;47.312;11.060;2023-07-20T08:04:05;24.70;88.00
10903;DHT22;5504;47.312;11.060;2023-07-20T08:06:31;24.30;88.30
10903;DHT22;5504;47.312;11.060;2023-07-20T08:08:57;24.30;87.90
10903;DHT22;5504;47.312;11.060;2023-07-20T08:11:23;24.50;89.60
10903;DHT22;5504;47.312;11.060;2023-07-20T08:13:49;25.10;90.30
10903;DHT22;5504;47.312;11.060;2023-07-20T08:16:15;24.90;85.00
10903;DHT22;5504;47.312;11.060;2023-07-20T08:18:40;24.80;86.70
10903;DHT22;5504;47.312;11.060;2023-07-20T08:21:06;25.00;88.80
10903;DHT22;5504;47.312;11.060;2023-07-20T08:23:32;25.50;87.30
10903;DHT22;5504;47.312;11.060;2023-07-20T08:26:00;26.00;85.60
10903;DHT22;5504;47.312;11.060;2023-07-20T08:28:26;26.00;85.50
10903;DHT22;5504;47.312;11.060;2023-07-20T08:30:52;26.20;82.40
10903;DHT22;5504;47.312;11.060;2023-07-20T08:33:18;26.60;85.20
10903;DHT22;5504;47.312;11.060;2023-07-20T08:35:45;26.90;81.10
10903;DHT22;5504;47.312;11.060;2023-07-20T08:38:12;27.30;82.00
10903;DHT22;5504;47.312;11.060;2023-07-20T08:40:43;27.70;85.20
10903;DHT22;5504;47.312;11.060;2023-07-20T08:43:11;28.10;77.00
10903;DHT22;5504;47.312;11.060;2023-07-20T08:45:39;28.00;79.50
10903;DHT22;5504;47.312;11.060;2023-07-20T08:48:06;27.00;72.60
10903;DHT22;5504;47.312;11.060;2023-07-20T08:50:33;26.40;79.60
10903;DHT22;5504;47.312;11.060;2023-07-20T08:52:59;27.00;80.40
10903;DHT22;5504;47.312;11.060;2023-07-20T08:55:29;27.60;81.70
10903;DHT22;5504;47.312;11.060;2023-07-20T08:57:57;27.80;78.60
10903;DHT22;5504;47.312;11.060;2023-07-20T09:00:24;28.10;78.40
10903;DHT22;5504;47.312;11.060;2023-07-20T09:02:53;28.50;75.50
10903;DHT22;5504;47.312;11.060;2023-07-20T09:05:20;28.80;75.90
10903;DHT22;5504;47.312;11.060;2023-07-20T09:07:46;29.00;74.60
10903;DHT22;5504;47.312;11.060;2023-07-20T09:10:12;28.30;70.80
10903;DHT22;5504;47.312;11.060;2023-07-20T09:12:42;28.50;82.40
10903;DHT22;5504;47.312;11.060;2023-07-20T09:15:10;28.10;80.40
10903;DHT22;5504;47.312;11.060;2023-07-20T09:17:36;28.40;72.50
10903;DHT22;5504;47.312;11.060;2023-07-20T09:20:07;28.70;72.10
10903;DHT22;5504;47.312;11.060;2023-07-20T09:22:37;28.20;71.20
10903;DHT22;5504;47.312;11.060;2023-07-20T09:25:07;28.10;73.50
10903;DHT22;5504;47.312;11.060;2023-07-20T09:27:40;28.10;74.70
10903;DHT22;5504;47.312;11.060;2023-07-20T09:30:06;27.30;75.30
10903;DHT22;5504;47.312;11.060;2023-07-20T09:32:39;27.60;73.90
10903;DHT22;5504;47.312;11.060;2023-07-20T09:35:06;27.60;78.10
10903;DHT22;5504;47.312;11.060;2023-07-20T09:37:33;28.00;73.90
10903;DHT22;5504;47.312;11.060;2023-07-20T09:39:59;28.40;71.20
10903;DHT22;5504;47.312;11.060;2023-07-20T09:42:25;28.60;70.40
10903;DHT22;5504;47.312;11.060;2023-07-20T09:44:52;28.90;74.10
10903;DHT22;5504;47.312;11.060;2023-07-20T09:47:24;29.20;74.90
10903;DHT22;5504;47.312;11.060;2023-07-20T09:49:58;28.70;68.70
10903;DHT22;5504;47.312;11.060;2023-07-20T09:52:25;29.20;72.30
10903;DHT22;5504;47.312;11.060;2023-07-20T09:54:51;29.40;73.20
10903;DHT22;5504;47.312;11.060;2023-07-20T09:57:18;29.60;67.10
10903;DHT22;5504;47.312;11.060;2023-07-20T09:59:43;28.70;66.70
10903;DHT22;5504;47.312;11.060;2023-07-20T10:02:33;27.50;69.80
10903;DHT22;5504;47.312;11.060;2023-07-20T10:05:02;27.40;69.50
10903;DHT22;5504;47.312;11.060;2023-07-20T10:07:30;27.20;70.10
10903;DHT22;5504;47.312;11.060;2023-07-20T10:09:59;27.20;70.30
10903;DHT22;5504;47.312;11.060;2023-07-20T10:12:27;27.60;71.50
10903;DHT22;5504;47.312;11.060;2023-07-20T10:15:22;28.40;74.50
10903;DHT22;5504;47.312;11.060;2023-07-20T10:18:02;28.90;75.90
10903;DHT22;5504;47.312;11.060;2023-07-20T10:20:30;29.30;74.90
10903;DHT22;5504;47.312;11.060;2023-07-20T10:22:57;29.30;64.90
10903;DHT22;5504;47.312;11.060;2023-07-20T10:25:23;29.60;68.90
10903;DHT22;5504;47.312;11.060;2023-07-20T10:27:50;29.90;68.20
10903;DHT22;5504;47.312;11.060;2023-07-20T10:30:17;30.00;70.80
10903;DHT22;5504;47.312;11.060;2023-07-20T10:32:44;30.30;70.60
10903;DHT22;5504;47.312;11.060;2023-07-20T10:35:17;29.80;62.80
10903;DHT22;5504;47.312;11.060;2023-07-20T10:37:51;27.60;65.00
10903;DHT22;5504;47.312;11.060;2023-07-20T10:40:31;28.20;71.60
10903;DHT22;5504;47.312;11.060;2023-07-20T10:43:01;28.80;70.10
10903;DHT22;5504;47.312;11.060;2023-07-20T10:48:15;29.90;69.50
10903;DHT22;5504;47.312;11.060;2023-07-20T10:50:42;30.20;69.00
10903;DHT22;5504;47.312;11.060;2023-07-20T10:53:11;30.30;69.00
10903;DHT22;5504;47.312;11.060;2023-07-20T10:55:41;30.50;67.30
10903;DHT22;5504;47.312;11.060;2023-07-20T11:00:35;30.50;64.30
10903;DHT22;5504;47.312;11.060;2023-07-20T11:03:01;29.90;65.20
10903;DHT22;5504;47.312;11.060;2023-07-20T11:05:35;30.20;69.70
10903;DHT22;5504;47.312;11.060;2023-07-20T11:08:10;30.60;69.30
10903;DHT22;5504;47.312;11.060;2023-07-20T11:10:36;30.80;67.40
10903;DHT22;5504;47.312;11.060;2023-07-20T11:13:24;30.50;65.80
10903;DHT22;5504;47.312;11.060;2023-07-20T11:18:25;31.00;66.10
10903;DHT22;5504;47.312;11.060;2023-07-20T11:20:52;31.20;64.70
10903;DHT22;5504;47.312;11.060;2023-07-20T11:23:19;31.30;68.90
10903;DHT22;5504;47.312;11.060;2023-07-20T11:25:45;30.70;67.70
10903;DHT22;5504;47.312;11.060;2023-07-20T11:28:11;31.10;67.10
10903;DHT22;5504;47.312;11.060;2023-07-20T11:30:40;30.90;63.00
10903;DHT22;5504;47.312;11.060;2023-07-20T11:33:07;30.40;60.40
10903;DHT22;5504;47.312;11.060;2023-07-20T11:35:51;29.70;66.20
10903;DHT22;5504;47.312;11.060;2023-07-20T11:38:18;30.40;71.60
10903;DHT22;5504;47.312;11.060;2023-07-20T11:40:44;30.50;65.00
10903;DHT22;5504;47.312;11.060;2023-07-20T11:43:14;30.70;64.20
10903;DHT22;5504;47.312;11.060;2023-07-20T11:45:40;30.70;65.90
10903;DHT22;5504;47.312;11.060;2023-07-20T11:48:06;30.70;65.10
10903;DHT22;5504;47.312;11.060;2023-07-20T11:50:32;30.30;63.80
10903;DHT22;5504;47.312;11.060;2023-07-20T11:52:58;30.80;67.90
10903;DHT22;5504;47.312;11.060;2023-07-20T11:55:23;31.00;64.50
10903;DHT22;5504;47.312;11.060;2023-07-20T11:58:06;31.00;63.40
10903;DHT22;5504;47.312;11.060;2023-07-20T12:00:33;31.10;63.10
10903;DHT22;5504;47.312;11.060;2023-07-20T12:03:00;31.30;62.10
10903;DHT22;5504;47.312;11.060;2023-07-20T12:05:26;31.20;62.00
10903;DHT22;5504;47.312;11.060;2023-07-20T12:07:52;31.00;62.80
10903;DHT22;5504;47.312;11.060;2023-07-20T12:10:24;30.90;64.40
10903;DHT22;5504;47.312;11.060;2023-07-20T12:12:51;31.00;61.80
10903;DHT22;5504;47.312;11.060;2023-07-20T12:15:21;30.20;57.60
10903;DHT22;5504;47.312;11.060;2023-07-20T12:17:50;29.40;62.60
10903;DHT22;5504;47.312;11.060;2023-07-20T12:20:26;29.70;63.40
10903;DHT22;5504;47.312;11.060;2023-07-20T12:22:52;29.60;63.30
10903;DHT22;5504;47.312;11.060;2023-07-20T12:25:19;29.90;59.00
10903;DHT22;5504;47.312;11.060;2023-07-20T12:27:46;30.10;62.40
10903;DHT22;5504;47.312;11.060;2023-07-20T12:30:13;29.60;62.20
10903;DHT22;5504;47.312;11.060;2023-07-20T12:32:42;29.80;58.90
10903;DHT22;5504;47.312;11.060;2023-07-20T12:35:08;30.50;64.70
10903;DHT22;5504;47.312;11.060;2023-07-20T12:37:34;30.70;59.60
10903;DHT22;5504;47.312;11.060;2023-07-20T12:39:59;30.40;56.40
10903;DHT22;5504;47.312;11.060;2023-07-20T12:42:25;29.60;59.50
10903;DHT22;5504;47.312;11.060;2023-07-20T12:44:52;30.10;64.40
10903;DHT22;5504;47.312;11.060;2023-07-20T12:47:18;30.60;63.70
10903;DHT22;5504;47.312;11.060;2023-07-20T12:49:44;30.80;60.20
10903;DHT22;5504;47.312;11.060;2023-07-20T12:52:11;30.60;58.10
10903;DHT22;5504;47.312;11.060;2023-07-20T12:54:36;29.90;57.20
10903;DHT22;5504;47.312;11.060;2023-07-20T12:57:02;29.50;59.30
10903;DHT22;5504;47.312;11.060;2023-07-20T12:59:29;29.90;60.40
10903;DHT22;5504;47.312;11.060;2023-07-20T13:01:54;30.60;60.00
10903;DHT22;5504;47.312;11.060;2023-07-20T13:04:20;30.80;59.10
10903;DHT22;5504;47.312;11.060;2023-07-20T13:06:46;30.70;58.60
10903;DHT22;5504;47.312;11.060;2023-07-20T13:09:11;30.60;58.60
10903;DHT22;5504;47.312;11.060;2023-07-20T13:11:37;29.30;61.00
10903;DHT22;5504;47.312;11.060;2023-07-20T13:14:03;29.70;59.80
10903;DHT22;5504;47.312;11.060;2023-07-20T13:16:28;29.30;58.70
10903;DHT22;5504;47.312;11.060;2023-07-20T13:18:54;29.20;59.10
10903;DHT22;5504;47.312;11.060;2023-07-20T13:21:20;29.90;63.00
10903;DHT22;5504;47.312;11.060;2023-07-20T13:23:48;29.00;57.90
10903;DHT22;5504;47.312;11.060;2023-07-20T13:26:17;29.40;57.50
10903;DHT22;5504;47.312;11.060;2023-07-20T13:28:43;29.80;57.20
10903;DHT22;5504;47.312;11.060;2023-07-20T13:31:08;29.50;61.60
10903;DHT22;5504;47.312;11.060;2023-07-20T13:33:36;29.90;58.30
10903;DHT22;5504;47.312;11.060;2023-07-20T13:36:02;28.10;57.50
10903;DHT22;5504;47.312;11.060;2023-07-20T13:38:31;28.50;60.30
10903;DHT22;5504;47.312;11.060;2023-07-20T13:40:57;29.20;59.00
10903;DHT22;5504;47.312;11.060;2023-07-20T13:43:22;29.20;57.80
10903;DHT22;5504;47.312;11.060;2023-07-20T13:45:48;29.50;59.70
10903;DHT22;5504;47.312;11.060;2023-07-20T13:48:14;29.00;56.80
10903;DHT22;5504;47.312;11.060;2023-07-20T13:50:40;28.90;59.80
10903;DHT22;5504;47.312;11.060;2023-07-20T13:53:06;28.90;57.00
10903;DHT22;5504;47.312;11.060;2023-07-20T13:55:31;29.20;60.60
10903;DHT22;5504;47.312;11.060;2023-07-20T13:57:59;29.30;58.60
10903;DHT22;5504;47.312;11.060;2023-07-20T14:00:24;28.90;56.80
10903;DHT22;5504;47.312;11.060;2023-07-20T14:02:52;29.10;58.80
10903;DHT22;5504;47.312;11.060;2023-07-20T14:05:18;29.40;58.40
10903;DHT22;5504;47.312;11.060;2023-07-20T14:07:45;29.40;58.90
10903;DHT22;5504;47.312;11.060;2023-07-20T14:10:10;29.20;58.40
10903;DHT22;5504;47.312;11.060;2023-07-20T14:12:36;29.40;59.40
10903;DHT22;5504;47.312;11.060;2023-07-20T14:15:02;29.40;58.10
10903;DHT22;5504;47.312;11.060;2023-07-20T14:17:29;29.60;59.10
10903;DHT22;5504;47.312;11.060;2023-07-20T14:19:54;29.80;58.00
10903;DHT22;5504;47.312;11.060;2023-07-20T14:22:20;29.50;55.90
10903;DHT22;5504;47.312;11.060;2023-07-20T14:24:46;29.60;56.60
10903;DHT22;5504;47.312;11.060;2023-07-20T14:27:11;29.50;56.00
10903;DHT22;5504;47.312;11.060;2023-07-20T14:29:37;29.40;57.40
10903;DHT22;5504;47.312;11.060;2023-07-20T14:32:03;29.40;58.40
10903;DHT22;5504;47.312;11.060;2023-07-20T14:34:29;29.30;57.00
10903;DHT22;5504;47.312;11.060;2023-07-20T14:36:55;29.20;59.10
10903;DHT22;5504;47.312;11.060;2023-07-20T14:39:21;29.20;59.20
10903;DHT22;5504;47.312;11.060;2023-07-20T14:41:47;29.00;57.40
10903;DHT22;5504;47.312;11.060;2023-07-20T14:44:13;28.80;58.40
10903;DHT22;5504;47.312;11.060;2023-07-20T14:46:38;28.90;58.00
10903;DHT22;5504;47.312;11.060;2023-07-20T14:49:04;28.60;57.70
10903;DHT22;5504;47.312;11.060;2023-07-20T14:51:30;28.60;59.60
10903;DHT22;5504;47.312;11.060;2023-07-20T14:53:59;28.90;59.40
10903;DHT22;5504;47.312;11.060;2023-07-20T14:56:25;29.20;59.30
10903;DHT22;5504;47.312;11.060;2023-07-20T14:58:51;29.20;61.50
10903;DHT22;5504;47.312;11.060;2023-07-20T15:01:18;29.30;61.00
10903;DHT22;5504;47.312;11.060;2023-07-20T15:03:44;29.30;57.80
10903;DHT22;5504;47.312;11.060;2023-07-20T15:06:12;28.90;60.00
10903;DHT22;5504;47.312;11.060;2023-07-20T15:08:38;28.40;58.00
10903;DHT22;5504;47.312;11.060;2023-07-20T15:11:03;28.20;57.90
10903;DHT22;5504;47.312;11.060;2023-07-20T15:13:29;28.40;60.10
10903;DHT22;5504;47.312;11.060;2023-07-20T15:15:55;28.40;58.50
10903;DHT22;5504;47.312;11.060;2023-07-20T15:18:20;28.50;59.00
10903;DHT22;5504;47.312;11.060;2023-07-20T15:20:46;28.50;58.00
10903;DHT22;5504;47.312;11.060;2023-07-20T15:23:13;28.50;57.90
10903;DHT22;5504;47.312;11.060;2023-07-20T15:25:39;28.50;58.90
10903;DHT22;5504;47.312;11.060;2023-07-20T15:28:04;28.60;58.70
10903;DHT22;5504;47.312;11.060;2023-07-20T15:30:30;28.10;59.20
10903;DHT22;5504;47.312;11.060;2023-07-20T15:32:56;28.10;61.70
10903;DHT22;5504;47.312;11.060;2023-07-20T15:35:23;27.80;58.70
10903;DHT22;5504;47.312;11.060;2023-07-20T15:37:49;27.90;60.60
10903;DHT22;5504;47.312;11.060;2023-07-20T15:40:14;28.20;62.90
10903;DHT22;5504;47.312;11.060;2023-07-20T15:42:40;28.30;59.70
10903;DHT22;5504;47.312;11.060;2023-07-20T15:45:06;28.40;62.00
10903;DHT22;5504;47.312;11.060;2023-07-20T15:47:32;28.50;59.10